sensor_id;sensor_type;location;lat;lon;timestamp;pressure;altitude;pressure_sealevel;temperature;humidity
74895;BME280;63447;49.446;8.666;2023-08-07T00:01:11;100192.03;;;13.05;91.93
74895;BME280;63447;49.446;8.666;2023-08-07T00:03:36;100197.22;;;13.06;92.40
74895;BME280;63447;49.446;8.666;2023-08-07T00:06:04;100193.66;;;13.06;91.42
74895;BME280;63447;49.446;8.666;2023-08-07T00:08:30;100183.91;;;12.96;90.79
74895;BME280;63447;49.446;8.666;2023-08-07T00:11:09;100190.31;;;13.00;91.96
74895;BME280;63447;49.446;8.666;2023-08-07T00:13:37;100187.53;;;13.00;90.30
74895;BME280;63447;49.446;8.666;2023-08-07T00:16:05;100192.66;;;12.98;90.50
74895;BME280;63447;49.446;8.666;2023-08-07T00:18:30;100180.31;;;12.96;89.82
74895;BME280;63447;49.446;8.666;2023-08-07T00:20:58;100189.44;;;12.96;89.82
74895;BME280;63447;49.446;8.666;2023-08-07T00:23:25;100190.69;;;12.99;89.83
74895;BME280;63447;49.446;8.666;2023-08-07T00:25:53;100183.19;;;12.99;89.91
74895;BME280;63447;49.446;8.666;2023-08-07T00:28:18;100188.28;;;12.97;89.82
74895;BME280;63447;49.446;8.666;2023-08-07T00:30:46;100179.97;;;12.97;89.25
74895;BME280;63447;49.446;8.666;2023-08-07T00:33:11;100184.69;;;12.97;88.58
74895;BME280;63447;49.446;8.666;2023-08-07T00:35:38;100194.34;;;13.03;88.82
74895;BME280;63447;49.446;8.666;2023-08-07T00:38:06;100182.78;;;13.13;87.13
74895;BME280;63447;49.446;8.666;2023-08-07T00:40:40;100185.06;;;12.95;88.74
74895;BME280;63447;49.446;8.666;2023-08-07T00:43:08;100179.66;;;12.86;88.86
74895;BME280;63447;49.446;8.666;2023-08-07T00:45:41;100189.31;;;12.93;89.23
74895;BME280;63447;49.446;8.666;2023-08-07T00:48:07;100180.66;;;12.94;87.57
74895;BME280;63447;49.446;8.666;2023-08-07T00:50:33;100182.19;;;12.91;87.47
74895;BME280;63447;49.446;8.666;2023-08-07T00:53:01;100189.16;;;13.01;87.85
74895;BME280;63447;49.446;8.666;2023-08-07T00:55:28;100183.69;;;12.89;87.39
74895;BME280;63447;49.446;8.666;2023-08-07T00:57:58;100192.81;;;12.89;88.29
74895;BME280;63447;49.446;8.666;2023-08-07T01:00:24;100194.53;;;12.94;89.04
74895;BME280;63447;49.446;8.666;2023-08-07T01:02:50;100194.97;;;12.96;86.12
74895;BME280;63447;49.446;8.666;2023-08-07T01:05:16;100170.69;;;12.77;86.19
74895;BME280;63447;49.446;8.666;2023-08-07T01:07:42;100196.72;;;12.88;86.20
74895;BME280;63447;49.446;8.666;2023-08-07T01:10:08;100183.25;;;12.75;86.90
74895;BME280;63447;49.446;8.666;2023-08-07T01:12:42;100205.84;;;12.89;86.33
74895;BME280;63447;49.446;8.666;2023-08-07T01:15:14;100202.63;;;12.87;86.36
74895;BME280;63447;49.446;8.666;2023-08-07T01:17:42;100211.97;;;12.82;86.22
74895;BME280;63447;49.446;8.666;2023-08-07T01:20:09;100196.97;;;12.83;86.37
74895;BME280;63447;49.446;8.666;2023-08-07T01:22:36;100205.63;;;12.82;87.84
74895;BME280;63447;49.446;8.666;2023-08-07T01:25:02;100203.91;;;12.77;86.48
74895;BME280;63447;49.446;8.666;2023-08-07T01:27:55;100207.00;;;12.88;85.26
74895;BME280;63447;49.446;8.666;2023-08-07T01:30:30;100196.63;;;12.85;84.39
74895;BME280;63447;49.446;8.666;2023-08-07T01:33:10;100197.31;;;12.82;85.48
74895;BME280;63447;49.446;8.666;2023-08-07T01:35:48;100218.66;;;12.81;85.82
74895;BME280;63447;49.446;8.666;2023-08-07T01:38:15;100208.03;;;12.83;86.53
74895;BME280;63447;49.446;8.666;2023-08-07T01:40:44;100214.63;;;12.79;86.15
74895;BME280;63447;49.446;8.666;2023-08-07T01:43:09;100194.16;;;12.68;85.74
74895;BME280;63447;49.446;8.666;2023-08-07T01:45:35;100218.41;;;12.86;83.12
74895;BME280;63447;49.446;8.666;2023-08-07T01:48:03;100214.28;;;12.80;84.48
74895;BME280;63447;49.446;8.666;2023-08-07T01:50:28;100213.72;;;12.75;86.60
74895;BME280;63447;49.446;8.666;2023-08-07T01:52:56;100207.38;;;12.74;86.30
74895;BME280;63447;49.446;8.666;2023-08-07T01:55:22;100214.97;;;12.77;85.92
74895;BME280;63447;49.446;8.666;2023-08-07T01:57:50;100212.78;;;12.83;84.19
74895;BME280;63447;49.446;8.666;2023-08-07T02:00:20;100222.34;;;12.85;82.96
74895;BME280;63447;49.446;8.666;2023-08-07T02:02:46;100217.41;;;12.79;84.41
74895;BME280;63447;49.446;8.666;2023-08-07T02:05:14;100228.22;;;12.84;85.04
74895;BME280;63447;49.446;8.666;2023-08-07T02:07:44;100214.28;;;12.80;84.53
74895;BME280;63447;49.446;8.666;2023-08-07T02:10:15;100218.41;;;12.86;83.65
74895;BME280;63447;49.446;8.666;2023-08-07T02:12:42;100223.25;;;12.89;83.35
74895;BME280;63447;49.446;8.666;2023-08-07T02:15:08;100225.91;;;12.86;82.52
74895;BME280;63447;49.446;8.666;2023-08-07T02:17:34;100218.53;;;12.90;82.52
74895;BME280;63447;49.446;8.666;2023-08-07T02:20:03;100203.09;;;12.77;82.10
74895;BME280;63447;49.446;8.666;2023-08-07T02:22:34;100230.41;;;12.90;82.66
74895;BME280;63447;49.446;8.666;2023-08-07T02:25:01;100210.94;;;12.75;81.82
74895;BME280;63447;49.446;8.666;2023-08-07T02:27:29;100222.81;;;12.87;80.71
74895;BME280;63447;49.446;8.666;2023-08-07T02:29:54;100225.22;;;12.89;82.26
74895;BME280;63447;49.446;8.666;2023-08-07T02:32:22;100231.31;;;12.95;80.48
74895;BME280;63447;49.446;8.666;2023-08-07T02:34:49;100231.91;;;12.88;81.68
74895;BME280;63447;49.446;8.666;2023-08-07T02:37:15;100234.69;;;12.88;82.73
74895;BME280;63447;49.446;8.666;2023-08-07T02:39:42;100241.28;;;12.83;82.45
74895;BME280;63447;49.446;8.666;2023-08-07T02:42:10;100226.66;;;12.71;82.39
74895;BME280;63447;49.446;8.666;2023-08-07T02:44:35;100242.44;;;12.82;81.86
74895;BME280;63447;49.446;8.666;2023-08-07T02:47:01;100236.53;;;12.84;82.84
74895;BME280;63447;49.446;8.666;2023-08-07T02:49:28;100239.41;;;12.87;82.66
74895;BME280;63447;49.446;8.666;2023-08-07T02:51:54;100236.09;;;12.82;83.59
74895;BME280;63447;49.446;8.666;2023-08-07T02:54:19;100228.13;;;12.80;80.47
74895;BME280;63447;49.446;8.666;2023-08-07T02:56:47;100247.84;;;12.79;82.48
74895;BME280;63447;49.446;8.666;2023-08-07T02:59:17;100230.53;;;12.82;80.87
74895;BME280;63447;49.446;8.666;2023-08-07T03:01:45;100221.59;;;12.73;81.22
74895;BME280;63447;49.446;8.666;2023-08-07T03:04:15;100229.84;;;12.85;81.37
74895;BME280;63447;49.446;8.666;2023-08-07T03:06:42;100235.50;;;12.76;81.61
74895;BME280;63447;49.446;8.666;2023-08-07T03:09:08;100239.19;;;12.80;82.01
74895;BME280;63447;49.446;8.666;2023-08-07T03:11:36;100232.66;;;12.73;82.89
74895;BME280;63447;49.446;8.666;2023-08-07T03:14:06;100229.22;;;12.64;82.19
74895;BME280;63447;49.446;8.666;2023-08-07T03:16:34;100241.50;;;12.78;82.84
74895;BME280;63447;49.446;8.666;2023-08-07T03:19:01;100247.16;;;12.82;82.63
74895;BME280;63447;49.446;8.666;2023-08-07T03:21:29;100232.56;;;12.69;81.51
74895;BME280;63447;49.446;8.666;2023-08-07T03:23:57;100245.31;;;12.86;80.79
74895;BME280;63447;49.446;8.666;2023-08-07T03:26:22;100225.75;;;12.67;81.61
74895;BME280;63447;49.446;8.666;2023-08-07T03:28:48;100236.22;;;12.73;82.05
74895;BME280;63447;49.446;8.666;2023-08-07T03:31:14;100249.47;;;12.80;82.08
74895;BME280;63447;49.446;8.666;2023-08-07T03:33:44;100247.63;;;12.84;81.11
74895;BME280;63447;49.446;8.666;2023-08-07T03:36:12;100234.69;;;12.76;81.10
74895;BME280;63447;49.446;8.666;2023-08-07T03:38:39;100248.78;;;12.83;80.59
74895;BME280;63447;49.446;8.666;2023-08-07T03:41:07;100224.84;;;12.63;82.32
74895;BME280;63447;49.446;8.666;2023-08-07T03:43:37;100246.50;;;12.73;82.05
74895;BME280;63447;49.446;8.666;2023-08-07T03:46:02;100251.47;;;12.67;83.20
74895;BME280;63447;49.446;8.666;2023-08-07T03:48:30;100243.63;;;12.57;82.63
74895;BME280;63447;49.446;8.666;2023-08-07T03:51:06;100241.72;;;12.45;84.20
74895;BME280;63447;49.446;8.666;2023-08-07T03:53:37;100257.81;;;12.55;85.14
74895;BME280;63447;49.446;8.666;2023-08-07T03:56:05;100259.31;;;12.53;85.05
74895;BME280;63447;49.446;8.666;2023-08-07T03:58:32;100259.00;;;12.42;86.51
74895;BME280;63447;49.446;8.666;2023-08-07T04:01:00;100256.34;;;12.46;86.53
74895;BME280;63447;49.446;8.666;2023-08-07T04:03:25;100253.69;;;12.37;86.88
74895;BME280;63447;49.446;8.666;2023-08-07T04:05:52;100256.34;;;12.46;87.20
74895;BME280;63447;49.446;8.666;2023-08-07T04:08:18;100254.81;;;12.61;85.09
74895;BME280;63447;49.446;8.666;2023-08-07T04:10:43;100251.84;;;12.41;87.21
74895;BME280;63447;49.446;8.666;2023-08-07T04:13:11;100257.84;;;12.43;86.76
74895;BME280;63447;49.446;8.666;2023-08-07T04:15:38;100253.69;;;12.25;87.72
74895;BME280;63447;49.446;8.666;2023-08-07T04:18:08;100252.53;;;12.38;88.07
74895;BME280;63447;49.446;8.666;2023-08-07T04:20:37;100261.50;;;12.47;89.35
74895;BME280;63447;49.446;8.666;2023-08-07T04:23:05;100262.47;;;12.39;87.29
74895;BME280;63447;49.446;8.666;2023-08-07T04:25:30;100261.75;;;12.30;89.21
74895;BME280;63447;49.446;8.666;2023-08-07T04:27:55;100258.06;;;12.26;87.60
74895;BME280;63447;49.446;8.666;2023-08-07T04:30:25;100267.53;;;12.37;88.72
74895;BME280;63447;49.446;8.666;2023-08-07T04:32:50;100279.97;;;12.31;88.95
74895;BME280;63447;49.446;8.666;2023-08-07T04:35:21;100274.91;;;12.21;88.96
74895;BME280;63447;49.446;8.666;2023-08-07T04:37:46;100284.91;;;12.26;89.33
74895;BME280;63447;49.446;8.666;2023-08-07T04:40:11;100265.34;;;12.18;89.09
74895;BME280;63447;49.446;8.666;2023-08-07T04:42:37;100284.59;;;12.39;87.37
74895;BME280;63447;49.446;8.666;2023-08-07T04:45:02;100276.88;;;12.33;87.05
74895;BME280;63447;49.446;8.666;2023-08-07T04:47:28;100299.13;;;12.36;89.21
74895;BME280;63447;49.446;8.666;2023-08-07T04:49:53;100295.31;;;12.41;88.28
74895;BME280;63447;49.446;8.666;2023-08-07T04:52:21;100288.28;;;12.43;87.69
74895;BME280;63447;49.446;8.666;2023-08-07T04:54:46;100297.06;;;12.45;88.28
74895;BME280;63447;49.446;8.666;2023-08-07T04:57:12;100290.94;;;12.40;90.13
74895;BME280;63447;49.446;8.666;2023-08-07T04:59:37;100303.28;;;12.42;87.87
74895;BME280;63447;49.446;8.666;2023-08-07T05:02:05;100296.09;;;12.29;88.08
74895;BME280;63447;49.446;8.666;2023-08-07T05:04:35;100310.19;;;12.36;87.57
74895;BME280;63447;49.446;8.666;2023-08-07T05:07:03;100297.97;;;12.37;87.58
74895;BME280;63447;49.446;8.666;2023-08-07T05:09:28;100315.16;;;12.43;88.52
74895;BME280;63447;49.446;8.666;2023-08-07T05:11:56;100302.00;;;12.40;88.43
74895;BME280;63447;49.446;8.666;2023-08-07T05:14:24;100294.28;;;12.33;87.77
74895;BME280;63447;49.446;8.666;2023-08-07T05:16:49;100307.31;;;12.45;87.12
74895;BME280;63447;49.446;8.666;2023-08-07T05:19:19;100288.50;;;12.38;87.24
74895;BME280;63447;49.446;8.666;2023-08-07T05:21:47;100312.94;;;12.48;87.39
74895;BME280;63447;49.446;8.666;2023-08-07T05:24:18;100309.94;;;12.53;88.42
74895;BME280;63447;49.446;8.666;2023-08-07T05:26:43;100316.75;;;12.44;88.36
74895;BME280;63447;49.446;8.666;2023-08-07T05:29:09;100306.94;;;12.34;88.11
74895;BME280;63447;49.446;8.666;2023-08-07T05:31:37;100331.28;;;12.41;89.71
74895;BME280;63447;49.446;8.666;2023-08-07T05:34:04;100333.22;;;12.52;88.88
74895;BME280;63447;49.446;8.666;2023-08-07T05:36:30;100335.09;;;12.61;88.35
74895;BME280;63447;49.446;8.666;2023-08-07T05:39:00;100324.72;;;12.57;88.77
74895;BME280;63447;49.446;8.666;2023-08-07T05:41:29;100337.75;;;12.57;87.93
74895;BME280;63447;49.446;8.666;2023-08-07T05:43:54;100330.13;;;12.66;86.46
74895;BME280;63447;49.446;8.666;2023-08-07T05:46:19;100327.94;;;12.60;87.22
74895;BME280;63447;49.446;8.666;2023-08-07T05:48:49;100327.03;;;12.68;87.06
74895;BME280;63447;49.446;8.666;2023-08-07T05:51:14;100331.50;;;12.60;85.04
74895;BME280;63447;49.446;8.666;2023-08-07T05:53:40;100327.94;;;12.60;85.08
74895;BME280;63447;49.446;8.666;2023-08-07T05:56:07;100331.75;;;12.67;84.92
74895;BME280;63447;49.446;8.666;2023-08-07T05:58:35;100337.75;;;12.69;86.18
74895;BME280;63447;49.446;8.666;2023-08-07T06:01:00;100340.75;;;12.64;85.45
74895;BME280;63447;49.446;8.666;2023-08-07T06:03:25;100330.94;;;12.67;86.31
74895;BME280;63447;49.446;8.666;2023-08-07T06:05:54;100335.22;;;12.64;84.27
74895;BME280;63447;49.446;8.666;2023-08-07T06:08:21;100326.53;;;12.78;83.44
74895;BME280;63447;49.446;8.666;2023-08-07T06:10:49;100341.06;;;12.75;86.27
74895;BME280;63447;49.446;8.666;2023-08-07T06:13:17;100348.91;;;12.85;85.08
74895;BME280;63447;49.446;8.666;2023-08-07T06:15:45;100350.06;;;12.84;84.40
74895;BME280;63447;49.446;8.666;2023-08-07T06:18:10;100347.28;;;12.84;85.24
74895;BME280;63447;49.446;8.666;2023-08-07T06:20:35;100346.94;;;12.85;84.43
74895;BME280;63447;49.446;8.666;2023-08-07T06:23:01;100343.84;;;12.99;83.94
74895;BME280;63447;49.446;8.666;2023-08-07T06:25:28;100353.19;;;12.95;84.00
74895;BME280;63447;49.446;8.666;2023-08-07T06:27:53;100341.53;;;12.89;85.16
74895;BME280;63447;49.446;8.666;2023-08-07T06:30:19;100346.50;;;12.96;83.60
74895;BME280;63447;49.446;8.666;2023-08-07T06:32:47;100349.59;;;12.94;83.57
74895;BME280;63447;49.446;8.666;2023-08-07T06:35:17;100355.69;;;13.00;81.83
74895;BME280;63447;49.446;8.666;2023-08-07T06:37:42;100353.28;;;12.98;82.67
74895;BME280;63447;49.446;8.666;2023-08-07T06:40:10;100362.25;;;13.07;81.31
74895;BME280;63447;49.446;8.666;2023-08-07T06:42:36;100363.75;;;13.05;82.11
74895;BME280;63447;49.446;8.666;2023-08-07T06:45:04;100356.72;;;13.07;80.47
74895;BME280;63447;49.446;8.666;2023-08-07T06:47:31;100340.84;;;12.92;80.62
74895;BME280;63447;49.446;8.666;2023-08-07T06:50:02;100364.47;;;13.02;79.81
74895;BME280;63447;49.446;8.666;2023-08-07T06:52:37;100366.41;;;13.01;80.81
74895;BME280;63447;49.446;8.666;2023-08-07T06:55:05;100376.59;;;12.97;82.67
74895;BME280;63447;49.446;8.666;2023-08-07T06:57:31;100369.91;;;12.86;79.96
74895;BME280;63447;49.446;8.666;2023-08-07T06:59:56;100360.69;;;12.94;79.16
74895;BME280;63447;49.446;8.666;2023-08-07T07:02:24;100379.13;;;13.02;79.39
74895;BME280;63447;49.446;8.666;2023-08-07T07:04:51;100381.53;;;13.04;78.17
74895;BME280;63447;49.446;8.666;2023-08-07T07:07:19;100378.66;;;13.00;78.11
74895;BME280;63447;49.446;8.666;2023-08-07T07:09:44;100392.63;;;13.04;79.02
74895;BME280;63447;49.446;8.666;2023-08-07T07:12:12;100382.84;;;12.94;78.25
74895;BME280;63447;49.446;8.666;2023-08-07T07:14:42;100381.44;;;12.88;79.20
74895;BME280;63447;49.446;8.666;2023-08-07T07:17:07;100372.91;;;12.93;78.19
74895;BME280;63447;49.446;8.666;2023-08-07T07:19:35;100403.34;;;13.05;78.80
74895;BME280;63447;49.446;8.666;2023-08-07T07:22:00;100403.81;;;13.07;77.68
74895;BME280;63447;49.446;8.666;2023-08-07T07:24:28;100389.50;;;13.05;78.38
74895;BME280;63447;49.446;8.666;2023-08-07T07:26:56;100408.31;;;13.00;77.25
74895;BME280;63447;49.446;8.666;2023-08-07T07:29:21;100416.84;;;13.07;77.72
74895;BME280;63447;49.446;8.666;2023-08-07T07:31:50;100420.44;;;13.07;77.70
74895;BME280;63447;49.446;8.666;2023-08-07T07:34:19;100419.63;;;13.07;78.70
74895;BME280;63447;49.446;8.666;2023-08-07T07:36:44;100418.59;;;13.11;79.14
74895;BME280;63447;49.446;8.666;2023-08-07T07:39:11;100421.25;;;13.08;78.57
74895;BME280;63447;49.446;8.666;2023-08-07T07:41:41;100432.91;;;13.01;79.54
74895;BME280;63447;49.446;8.666;2023-08-07T07:44:07;100434.22;;;13.16;78.26
74895;BME280;63447;49.446;8.666;2023-08-07T07:46:35;100425.84;;;13.04;79.85
74895;BME280;63447;49.446;8.666;2023-08-07T07:49:00;100437.63;;;13.13;79.95
74895;BME280;63447;49.446;8.666;2023-08-07T07:51:28;100435.44;;;13.06;80.24
74895;BME280;63447;49.446;8.666;2023-08-07T07:53:54;100443.28;;;13.04;81.28
74895;BME280;63447;49.446;8.666;2023-08-07T07:56:19;100432.22;;;12.92;80.94
74895;BME280;63447;49.446;8.666;2023-08-07T07:58:45;100445.38;;;12.83;83.37
74895;BME280;63447;49.446;8.666;2023-08-07T08:01:12;100452.53;;;12.84;83.24
74895;BME280;63447;49.446;8.666;2023-08-07T08:03:40;100465.69;;;12.87;85.09
74895;BME280;63447;49.446;8.666;2023-08-07T08:06:05;100457.63;;;12.94;84.66
74895;BME280;63447;49.446;8.666;2023-08-07T08:08:31;100462.69;;;13.04;82.16
74895;BME280;63447;49.446;8.666;2023-08-07T08:10:58;100455.63;;;12.70;85.53
74895;BME280;63447;49.446;8.666;2023-08-07T08:13:26;100467.06;;;12.69;86.45
74895;BME280;63447;49.446;8.666;2023-08-07T08:15:59;100462.53;;;12.76;84.77
74895;BME280;63447;49.446;8.666;2023-08-07T08:18:26;100466.81;;;12.62;86.33
74895;BME280;63447;49.446;8.666;2023-08-07T08:20:54;100460.03;;;12.71;86.91
74895;BME280;63447;49.446;8.666;2023-08-07T08:23:21;100491.03;;;12.77;87.65
74895;BME280;63447;49.446;8.666;2023-08-07T08:25:49;100482.31;;;12.99;84.78
74895;BME280;63447;49.446;8.666;2023-08-07T08:28:14;100480.50;;;13.15;86.13
74895;BME280;63447;49.446;8.666;2023-08-07T08:30:42;100480.00;;;13.13;87.02
74895;BME280;63447;49.446;8.666;2023-08-07T08:33:12;100466.66;;;13.15;85.59
74895;BME280;63447;49.446;8.666;2023-08-07T08:35:38;100476.81;;;13.23;86.97
74895;BME280;63447;49.446;8.666;2023-08-07T08:38:03;100485.09;;;13.36;85.41
74895;BME280;63447;49.446;8.666;2023-08-07T08:40:30;100485.09;;;13.48;85.07
74895;BME280;63447;49.446;8.666;2023-08-07T08:42:56;100480.66;;;13.59;85.81
74895;BME280;63447;49.446;8.666;2023-08-07T08:45:28;100486.09;;;13.68;85.01
74895;BME280;63447;49.446;8.666;2023-08-07T08:48:01;100482.47;;;13.79;83.88
74895;BME280;63447;49.446;8.666;2023-08-07T08:50:32;100487.31;;;13.82;82.77
74895;BME280;63447;49.446;8.666;2023-08-07T08:53:02;100493.53;;;13.91;84.07
74895;BME280;63447;49.446;8.666;2023-08-07T08:55:28;100493.66;;;13.95;82.32
74895;BME280;63447;49.446;8.666;2023-08-07T08:57:57;100495.84;;;14.02;82.21
74895;BME280;63447;49.446;8.666;2023-08-07T09:00:25;100478.97;;;13.95;81.04
74895;BME280;63447;49.446;8.666;2023-08-07T09:02:52;100501.78;;;14.16;81.45
74895;BME280;63447;49.446;8.666;2023-08-07T09:05:23;100508.25;;;14.20;81.48
74895;BME280;63447;49.446;8.666;2023-08-07T09:07:49;100503.59;;;14.24;81.36
74895;BME280;63447;49.446;8.666;2023-08-07T09:10:15;100504.00;;;14.38;81.94
74895;BME280;63447;49.446;8.666;2023-08-07T09:13:01;100496.47;;;14.39;80.14
74895;BME280;63447;49.446;8.666;2023-08-07T09:15:34;100463.19;;;14.11;79.86
74895;BME280;63447;49.446;8.666;2023-08-07T09:18:05;100503.31;;;14.41;79.94
74895;BME280;63447;49.446;8.666;2023-08-07T09:20:35;100499.38;;;14.42;79.75
74895;BME280;63447;49.446;8.666;2023-08-07T09:23:03;100499.69;;;14.53;79.61
74895;BME280;63447;49.446;8.666;2023-08-07T09:25:32;100460.50;;;14.42;77.55
74895;BME280;63447;49.446;8.666;2023-08-07T09:28:00;100481.22;;;14.60;75.10
74895;BME280;63447;49.446;8.666;2023-08-07T09:30:29;100510.19;;;14.91;77.71
74895;BME280;63447;49.446;8.666;2023-08-07T09:33:01;100503.47;;;14.92;77.22
74895;BME280;63447;49.446;8.666;2023-08-07T09:35:29;100493.53;;;14.91;77.42
74895;BME280;63447;49.446;8.666;2023-08-07T09:38:00;100513.50;;;15.12;78.57
74895;BME280;63447;49.446;8.666;2023-08-07T09:40:25;100511.19;;;15.14;78.25
74895;BME280;63447;49.446;8.666;2023-08-07T09:42:54;100522.56;;;15.09;79.51
74895;BME280;63447;49.446;8.666;2023-08-07T09:45:23;100511.72;;;14.88;80.01
74895;BME280;63447;49.446;8.666;2023-08-07T09:48:07;100510.91;;;14.88;79.25
74895;BME280;63447;49.446;8.666;2023-08-07T09:50:34;100517.53;;;14.68;79.52
74895;BME280;63447;49.446;8.666;2023-08-07T09:53:02;100510.97;;;14.60;79.68
74895;BME280;63447;49.446;8.666;2023-08-07T09:55:28;100506.75;;;14.50;79.91
74895;BME280;63447;49.446;8.666;2023-08-07T09:57:55;100510.44;;;14.54;78.61
74895;BME280;63447;49.446;8.666;2023-08-07T10:00:23;100528.31;;;14.57;79.75
74895;BME280;63447;49.446;8.666;2023-08-07T10:02:56;100513.56;;;14.53;80.04
74895;BME280;63447;49.446;8.666;2023-08-07T10:05:24;100532.56;;;14.67;80.98
74895;BME280;63447;49.446;8.666;2023-08-07T10:07:50;100538.94;;;14.67;81.24
74895;BME280;63447;49.446;8.666;2023-08-07T10:10:18;100543.88;;;14.74;81.15
74895;BME280;63447;49.446;8.666;2023-08-07T10:12:48;100541.06;;;14.58;81.25
74895;BME280;63447;49.446;8.666;2023-08-07T10:15:17;100540.25;;;14.57;80.22
74895;BME280;63447;49.446;8.666;2023-08-07T10:17:45;100543.09;;;14.45;82.13
74895;BME280;63447;49.446;8.666;2023-08-07T10:20:16;100545.63;;;14.50;82.15
74895;BME280;63447;49.446;8.666;2023-08-07T10:22:42;100537.63;;;14.49;81.37
74895;BME280;63447;49.446;8.666;2023-08-07T10:25:12;100546.44;;;14.51;82.06
74895;BME280;63447;49.446;8.666;2023-08-07T10:27:38;100551.28;;;14.54;83.05
74895;BME280;63447;49.446;8.666;2023-08-07T10:30:10;100556.44;;;14.55;82.69
74895;BME280;63447;49.446;8.666;2023-08-07T10:32:41;100557.66;;;14.70;82.58
74895;BME280;63447;49.446;8.666;2023-08-07T10:35:07;100570.28;;;14.68;82.90
74895;BME280;63447;49.446;8.666;2023-08-07T10:37:43;100568.22;;;14.65;82.67
74895;BME280;63447;49.446;8.666;2023-08-07T10:40:12;100565.44;;;14.65;82.20
74895;BME280;63447;49.446;8.666;2023-08-07T10:45:22;100565.19;;;14.70;81.53
74895;BME280;63447;49.446;8.666;2023-08-07T10:48:08;100566.03;;;14.58;79.31
74895;BME280;63447;49.446;8.666;2023-08-07T10:53:47;100568.66;;;14.67;81.50
74895;BME280;63447;49.446;8.666;2023-08-07T10:58:51;100574.34;;;14.86;83.42
74895;BME280;63447;49.446;8.666;2023-08-07T11:01:20;100573.91;;;14.84;82.65
74895;BME280;63447;49.446;8.666;2023-08-07T11:03:51;100557.22;;;14.68;80.78
74895;BME280;63447;49.446;8.666;2023-08-07T11:06:34;100580.19;;;14.97;82.81
74895;BME280;63447;49.446;8.666;2023-08-07T11:09:00;100584.06;;;15.08;83.53
74895;BME280;63447;49.446;8.666;2023-08-07T11:11:28;100572.06;;;15.04;84.02
74895;BME280;63447;49.446;8.666;2023-08-07T11:13:56;100580.75;;;15.02;83.91
74895;BME280;63447;49.446;8.666;2023-08-07T11:16:24;100577.59;;;14.88;85.36
74895;BME280;63447;49.446;8.666;2023-08-07T11:18:50;100586.56;;;14.97;83.28
74895;BME280;63447;49.446;8.666;2023-08-07T11:21:15;100569.22;;;14.72;83.35
74895;BME280;63447;49.446;8.666;2023-08-07T11:23:43;100572.22;;;14.51;83.49
74895;BME280;63447;49.446;8.666;2023-08-07T11:26:11;100578.03;;;14.34;84.66
74895;BME280;63447;49.446;8.666;2023-08-07T11:28:37;100575.19;;;14.58;84.48
74895;BME280;63447;49.446;8.666;2023-08-07T11:31:09;100574.03;;;14.59;85.68
74895;BME280;63447;49.446;8.666;2023-08-07T11:33:36;100578.88;;;14.63;84.93
74895;BME280;63447;49.446;8.666;2023-08-07T11:36:13;100580.34;;;14.72;85.12
74895;BME280;63447;49.446;8.666;2023-08-07T11:38:40;100568.88;;;14.74;84.42
74895;BME280;63447;49.446;8.666;2023-08-07T11:41:11;100565.28;;;14.73;84.88
74895;BME280;63447;49.446;8.666;2023-08-07T11:43:37;100566.47;;;14.88;84.53
74895;BME280;63447;49.446;8.666;2023-08-07T11:46:07;100562.22;;;15.06;83.19
74895;BME280;63447;49.446;8.666;2023-08-07T11:48:36;100562.66;;;15.24;84.08
74895;BME280;63447;49.446;8.666;2023-08-07T11:51:03;100567.03;;;15.25;84.86
74895;BME280;63447;49.446;8.666;2023-08-07T11:53:35;100563.19;;;14.98;80.38
74895;BME280;63447;49.446;8.666;2023-08-07T11:56:03;100564.59;;;15.08;85.53
74895;BME280;63447;49.446;8.666;2023-08-07T11:58:48;100555.09;;;15.09;84.35
74895;BME280;63447;49.446;8.666;2023-08-07T12:01:16;100546.69;;;15.21;84.64
74895;BME280;63447;49.446;8.666;2023-08-07T12:03:50;100552.16;;;15.17;86.08
74895;BME280;63447;49.446;8.666;2023-08-07T12:06:15;100553.69;;;15.15;85.90
74895;BME280;63447;49.446;8.666;2023-08-07T12:08:41;100548.28;;;14.90;89.15
74895;BME280;63447;49.446;8.666;2023-08-07T12:11:11;100554.13;;;15.17;89.24
74895;BME280;63447;49.446;8.666;2023-08-07T12:13:42;100552.84;;;14.83;87.84
74895;BME280;63447;49.446;8.666;2023-08-07T12:16:08;100542.00;;;14.93;88.32
74895;BME280;63447;49.446;8.666;2023-08-07T12:18:35;100552.06;;;15.14;87.76
74895;BME280;63447;49.446;8.666;2023-08-07T12:21:05;100552.88;;;15.14;86.18
74895;BME280;63447;49.446;8.666;2023-08-07T12:23:35;100541.13;;;15.21;89.29
74895;BME280;63447;49.446;8.666;2023-08-07T12:26:06;100551.97;;;15.42;88.83
74895;BME280;63447;49.446;8.666;2023-08-07T12:28:35;100556.44;;;15.62;86.79
74895;BME280;63447;49.446;8.666;2023-08-07T12:31:06;100548.91;;;15.78;86.11
74895;BME280;63447;49.446;8.666;2023-08-07T12:33:34;100553.81;;;15.85;85.15
74895;BME280;63447;49.446;8.666;2023-08-07T12:36:00;100544.59;;;15.65;84.09
74895;BME280;63447;49.446;8.666;2023-08-07T12:38:26;100533.47;;;15.65;84.70
74895;BME280;63447;49.446;8.666;2023-08-07T12:40:57;100552.66;;;15.70;84.01
74895;BME280;63447;49.446;8.666;2023-08-07T12:43:25;100539.59;;;15.55;82.05
74895;BME280;63447;49.446;8.666;2023-08-07T12:45:53;100548.81;;;15.43;82.10
74895;BME280;63447;49.446;8.666;2023-08-07T12:48:18;100543.88;;;15.37;83.59
74895;BME280;63447;49.446;8.666;2023-08-07T12:50:44;100549.19;;;15.26;85.62
74895;BME280;63447;49.446;8.666;2023-08-07T12:53:13;100545.81;;;15.33;84.40
74895;BME280;63447;49.446;8.666;2023-08-07T12:55:38;100524.69;;;15.47;84.07
74895;BME280;63447;49.446;8.666;2023-08-07T12:58:09;100539.84;;;15.66;85.46
74895;BME280;63447;49.446;8.666;2023-08-07T13:00:36;100523.25;;;15.69;84.92
74895;BME280;63447;49.446;8.666;2023-08-07T13:03:02;100531.25;;;15.90;85.34